Time;durP1;ratioP1;P1;durP2;ratioP2;P2;SDS_P1;SDS_P2;PMS_P1;PMS_P2;Temp;Humidity;BMP_temperature;BMP_pressure;BME280_temperature;BME280_humidity;BME280_pressure;Samples;Min_cycle;Max_cycle;Signal;HPM_P1;HPM_P2
2022/02/08 00:00:59;;;;;;;6.85;2.10;;;;;;;-0.84;86.58;96813.59;5002243;28;20197;-76
2022/02/08 00:03:25;;;;;;;9.95;2.70;;;;;;;-0.88;86.61;96808.75;5010419;28;20507;-77
2022/02/08 00:08:25;;;;;;;;;;;;;;;-0.99;86.88;96811.69;4996020;28;20491;-77
2022/02/08 00:10:50;;;;;;;5.53;1.98;;;;;;;-0.87;86.45;96812.94;4991753;28;20028;-77
2022/02/08 00:13:16;;;;;;;4.82;2.05;;;;;;;-0.97;86.39;96814.88;4993061;28;20043;-77
2022/02/08 00:15:41;;;;;;;9.27;2.35;;;;;;;-1.01;87.60;96807.63;4992439;28;20046;-77
2022/02/08 00:18:07;;;;;;;7.80;2.50;;;;;;;-1.14;87.07;96808.13;4992860;28;20535;-77
2022/02/08 00:20:33;;;;;;;7.70;2.30;;;;;;;-1.05;86.77;96812.31;4991597;28;20122;-77
2022/02/08 00:22:58;;;;;;;8.65;2.25;;;;;;;-1.01;86.36;96826.53;4992686;28;20685;-77
2022/02/08 00:25:24;;;;;;;9.40;2.72;;;;;;;-1.02;87.11;96822.34;4992809;28;20046;-77
2022/02/08 00:27:49;;;;;;;7.38;2.30;;;;;;;-1.06;86.25;96823.63;4993000;28;20101;-77
2022/02/08 00:30:15;;;;;;;7.93;2.20;;;;;;;-1.22;87.60;96820.09;4993042;28;20054;-77
2022/02/08 00:32:40;;;;;;;9.77;2.60;;;;;;;-1.07;86.57;96819.44;5008255;28;20050;-77
2022/02/08 00:35:07;;;;;;;8.30;2.45;;;;;;;-0.99;86.19;96822.00;4992093;28;20049;-77
2022/02/08 00:37:32;;;;;;;11.52;2.33;;;;;;;-1.16;86.64;96815.25;4984258;28;20094;-77
2022/02/08 00:39:57;;;;;;;7.93;2.00;;;;;;;-1.18;87.25;96814.59;4978809;28;20038;-77
2022/02/08 00:42:24;;;;;;;6.00;1.98;;;;;;;-1.08;86.87;96817.81;4992292;28;20042;-78
2022/02/08 00:45:24;;;;;;;11.02;1.60;;;;;;;-1.24;87.99;96822.00;4992808;28;20049;-77
2022/02/08 00:47:40;;;;;;;7.15;2.33;;;;;;;-1.06;86.84;96816.69;4994243;28;20073;-78
2022/02/08 00:50:08;;;;;;;10.93;2.33;;;;;;;-1.07;86.92;96819.44;4992621;28;20437;-78
2022/02/08 00:52:36;;;;;;;4.97;2.00;;;;;;;-1.11;86.76;96824.09;4994524;28;20042;-77
2022/02/08 00:55:04;;;;;;;7.68;1.98;;;;;;;-1.23;87.57;96821.06;4993187;28;20042;-77
2022/02/08 00:57:29;;;;;;;10.82;2.20;;;;;;;-1.16;86.93;96830.75;4994029;28;20046;-78
2022/02/08 00:59:55;;;;;;;8.15;2.30;;;;;;;-1.15;86.51;96833.19;5007680;28;20100;-77
2022/02/08 01:02:21;;;;;;;10.77;2.10;;;;;;;-1.20;86.82;96824.28;5001813;28;20050;-77
2022/02/08 01:04:53;;;;;;;6.25;2.00;;;;;;;-1.30;87.98;96830.41;4997405;28;20164;-77
2022/02/08 01:07:19;;;;;;;9.80;2.50;;;;;;;-1.26;87.36;96836.88;4992120;28;20555;-77
2022/02/08 01:09:51;;;;;;;10.63;2.00;;;;;;;-1.18;87.14;96837.84;4990619;28;20489;-77
2022/02/08 01:12:17;;;;;;;7.03;1.83;;;;;;;-1.19;86.78;96836.22;4992540;28;20046;-78
2022/02/08 01:14:45;;;;;;;9.85;2.00;;;;;;;-1.20;86.78;96834.63;4990909;28;20038;-77
2022/02/08 01:17:13;;;;;;;6.82;1.85;;;;;;;-1.31;87.19;96836.53;4992123;28;20038;-77
2022/02/08 01:19:46;;;;;;;6.63;2.10;;;;;;;-1.30;87.71;96830.41;4990936;28;20499;-77
2022/02/08 01:22:12;;;;;;;10.13;2.35;;;;;;;-1.40;88.48;96829.78;4991486;28;20034;-77
2022/02/08 01:24:37;;;;;;;7.45;2.00;;;;;;;-1.39;87.75;96836.56;4991877;28;20057;-78
2022/02/08 01:27:08;;;;;;;5.55;1.90;;;;;;;-1.42;88.28;96842.84;4991779;28;20039;-78
2022/02/08 01:34:56;;;;;;;7.43;1.98;;;;;;;-1.44;87.87;96843.97;4991610;28;20101;-77
2022/02/08 01:37:38;;;;;;;7.25;1.67;;;;;;;-1.61;88.73;96849.13;4992859;28;20042;-77
2022/02/08 01:40:16;;;;;;;9.55;2.22;;;;;;;-1.65;88.71;96847.81;4987096;28;20118;-77
2022/02/08 01:43:01;;;;;;;7.25;1.63;;;;;;;-1.63;88.97;96845.09;4984023;28;20038;-77
2022/02/08 01:50:31;;;;;;;5.28;1.98;;;;;;;-1.65;88.32;96847.00;4990741;28;20054;-77
2022/02/08 01:52:57;;;;;;;7.88;2.10;;;;;;;-1.69;88.46;96838.00;4990628;28;20061;-77
2022/02/08 01:55:23;;;;;;;6.28;1.60;;;;;;;-1.83;89.55;96844.56;4991526;28;20408;-77
2022/02/08 01:57:48;;;;;;;4.57;1.40;;;;;;;-1.70;88.31;96844.91;4991093;28;20046;-76
2022/02/08 02:00:17;;;;;;;3.20;1.65;;;;;;;-1.72;88.38;96841.69;4991267;28;20054;-77
2022/02/08 02:02:42;;;;;;;9.07;1.90;;;;;;;-1.77;88.99;96833.59;4991026;28;20045;-77
2022/02/08 02:05:08;;;;;;;5.05;1.70;;;;;;;-1.64;88.11;96839.13;4990715;28;20034;-77
2022/02/08 02:07:35;;;;;;;7.10;1.80;;;;;;;-1.47;87.44;96833.97;5005574;28;20067;-77
2022/02/08 02:10:02;;;;;;;8.18;2.05;;;;;;;-1.43;87.29;96830.09;4990391;28;20043;-76
2022/02/08 02:12:27;;;;;;;7.75;1.52;;;;;;;-1.37;86.82;96833.81;4991507;28;20042;-77
2022/02/08 02:14:54;;;;;;;8.52;1.83;;;;;;;-1.29;86.57;96829.47;4990204;28;20595;-77
2022/02/08 02:17:20;;;;;;;4.85;1.67;;;;;;;-1.20;86.22;96829.47;4990786;28;20034;-77
2022/02/08 02:19:46;;;;;;;8.20;1.50;;;;;;;-1.02;85.06;96826.69;4991531;28;20046;-77
2022/02/08 02:22:12;;;;;;;6.18;1.60;;;;;;;-0.95;85.29;96838.81;4990240;28;20042;-76
2022/02/08 02:24:39;;;;;;;7.35;1.90;;;;;;;-0.96;84.83;96832.03;4989708;28;20071;-77
2022/02/08 02:27:06;;;;;;;4.53;1.55;;;;;;;-0.90;84.61;96828.78;4994180;28;20043;-76
2022/02/08 02:29:32;;;;;;;8.07;1.67;;;;;;;-0.82;84.18;96827.13;4989203;28;20034;-76
2022/02/08 02:31:59;;;;;;;4.82;2.10;;;;;;;-0.81;83.91;96824.38;5005747;28;20050;-77
2022/02/08 02:34:25;;;;;;;9.80;1.60;;;;;;;-0.72;83.33;96827.75;4990017;28;20172;-77
2022/02/08 02:36:53;;;;;;;12.48;2.08;;;;;;;-0.65;82.74;96823.53;4989663;28;20046;-77
2022/02/08 02:39:25;;;;;;;8.85;1.40;;;;;;;-0.64;83.06;96819.19;4988706;28;20100;-77
2022/02/08 02:41:52;;;;;;;4.30;1.50;;;;;;;-0.73;83.20;96823.59;4992022;28;20107;-77
2022/02/08 02:44:21;;;;;;;9.13;1.40;;;;;;;-0.65;83.02;96839.06;4996768;28;20451;-78
2022/02/08 02:46:48;;;;;;;6.03;1.42;;;;;;;-0.63;82.65;96833.72;4990461;28;20034;-77
2022/02/08 02:49:13;;;;;;;5.07;1.58;;;;;;;-0.60;83.29;96836.78;4989806;28;20038;-77
2022/02/08 02:51:39;;;;;;;11.10;2.00;;;;;;;-0.69;83.56;96837.75;4989612;28;20516;-77
2022/02/08 02:54:17;;;;;;;3.72;1.30;;;;;;;-0.63;83.04;96837.13;4990245;28;20795;-77
2022/02/08 02:56:45;;;;;;;4.93;1.50;;;;;;;-0.60;83.78;96834.22;4991221;28;20053;-77
2022/02/08 02:59:11;;;;;;;6.53;1.50;;;;;;;-0.56;83.19;96830.31;4989991;28;20064;-77
2022/02/08 03:02:09;;;;;;;7.65;1.42;;;;;;;-0.56;83.40;96827.72;4987762;28;20131;-77
2022/02/08 03:04:56;;;;;;;14.18;2.25;;;;;;;-0.58;83.38;96834.84;4985156;28;20064;-77
2022/02/08 03:20:43;;;;;;;5.65;1.60;;;;;;;-0.37;82.57;96846.44;4989020;28;20034;-77
2022/02/08 03:23:08;;;;;;;3.95;1.77;;;;;;;-0.36;82.19;96848.03;4980442;28;20042;-76
2022/02/08 03:25:34;;;;;;;3.90;1.40;;;;;;;-0.35;82.18;96849.63;4981795;28;20043;-77
2022/02/08 03:28:00;;;;;;;3.30;1.48;;;;;;;-0.31;82.02;96850.94;4986694;28;20068;-76
2022/02/08 03:30:26;;;;;;;2.63;1.20;;;;;;;-0.28;81.96;96860.94;4989715;28;20046;-77
2022/02/08 03:32:53;;;;;;;3.30;1.40;;;;;;;-0.26;82.09;96863.34;4989790;28;20038;-77
2022/02/08 03:35:19;;;;;;;5.32;1.30;;;;;;;-0.29;81.90;96864.47;4992942;28;20046;-77
2022/02/08 03:37:54;;;;;;;5.60;1.40;;;;;;;-0.24;81.92;96866.59;5003736;28;20407;-77
2022/02/08 03:40:36;;;;;;;6.57;1.63;;;;;;;-0.18;81.50;96865.91;4996009;28;20046;-77
2022/02/08 03:43:28;;;;;;;3.58;1.30;;;;;;;-0.35;82.44;96860.00;4997172;28;20186;-78
2022/02/08 03:45:57;;;;;;;6.13;1.55;;;;;;;-0.26;82.55;96866.75;5000830;28;20065;-78
2022/02/08 03:48:25;;;;;;;8.18;1.63;;;;;;;-0.25;82.24;96860.59;5015344;28;20043;-78
2022/02/08 03:50:57;;;;;;;5.95;1.63;;;;;;;-0.11;81.73;96871.25;4996297;28;20511;-78
2022/02/08 03:53:24;;;;;;;2.90;1.02;;;;;;;-0.09;81.61;96864.09;4994401;28;20047;-78
2022/02/08 03:55:51;;;;;;;7.72;1.50;;;;;;;-0.10;81.70;96857.31;4994737;28;20038;-78
2022/02/08 03:58:17;;;;;;;6.00;1.33;;;;;;;-0.11;82.12;96861.69;5001379;28;20038;-78
2022/02/08 04:01:58;;;;;;;5.78;1.70;;;;;;;-0.11;81.82;96866.06;5012379;28;20096;-78
2022/02/08 04:03:31;;;;;;;4.65;1.48;;;;;;;-0.15;82.23;96869.97;4990410;28;20058;-77
2022/02/08 04:05:59;;;;;;;5.43;1.60;;;;;;;-0.06;81.88;96868.94;5003846;28;20038;-77
2022/02/08 04:08:24;;;;;;;3.38;1.38;;;;;;;-0.01;81.57;96869.25;4996643;28;20101;-77
2022/02/08 04:10:51;;;;;;;2.55;1.05;;;;;;;-0.07;82.37;96860.38;4992039;28;20726;-77
2022/02/08 04:13:22;;;;;;;10.43;1.77;;;;;;;-0.06;82.31;96874.13;5001254;28;20046;-77
2022/02/08 04:16:06;;;;;;;4.38;1.25;;;;;;;-0.13;81.74;96868.00;4995921;28;20065;-77
2022/02/08 04:42:48;;;;;;;4.78;1.63;;;;;;;0.01;81.18;96869.88;4992953;28;20038;-77
2022/02/08 04:48:40;;;;;;;2.92;1.42;;;;;;;-0.11;81.94;96876.41;4992102;28;20542;-77
2022/02/08 04:50:29;;;;;;;9.38;1.95;;;;;;;-0.05;81.68;96875.72;4993082;28;20062;-77
2022/02/08 04:53:01;;;;;;;8.40;1.80;;;;;;;0.02;81.18;96855.97;4992519;28;20552;-77
2022/02/08 05:00:46;;;;;;;5.43;1.23;;;;;;;-0.22;82.36;96874.97;4992552;28;20050;-77
2022/02/08 05:36:32;;;;;;;3.17;1.60;;;;;;;0.20;76.85;96857.50;4991604;28;20054;-77
2022/02/08 05:40:48;;;;;;;4.45;1.58;;;;;;;0.29;76.08;96853.91;4990646;28;20108;-77
2022/02/08 05:44:28;;;;;;;10.35;1.33;;;;;;;0.27;76.93;96848.84;4990157;28;20489;-77
2022/02/08 05:49:06;;;;;;;8.52;1.15;;;;;;;0.26;77.21;96849.03;4990337;28;20041;-77
2022/02/08 05:51:58;;;;;;;14.35;1.67;;;;;;;0.29;76.76;96846.13;4990747;28;20078;-76
2022/02/08 05:54:24;;;;;;;7.75;1.60;;;;;;;0.30;76.23;96847.72;4999329;28;20057;-77
2022/02/08 05:56:54;;;;;;;6.95;1.40;;;;;;;0.32;76.61;96850.97;4991144;28;20047;-77
2022/02/08 05:59:21;;;;;;;3.88;1.23;;;;;;;0.37;76.17;96864.19;4991271;28;20444;-78
2022/02/08 06:01:47;;;;;;;8.45;1.55;;;;;;;0.45;75.45;96856.38;4992725;28;20038;-78
2022/02/08 06:04:13;;;;;;;3.08;1.08;;;;;;;0.42;75.54;96867.06;4991199;28;20038;-78
2022/02/08 06:06:39;;;;;;;4.18;1.50;;;;;;;0.51;75.60;96858.25;4991295;28;20049;-77
2022/02/08 06:09:05;;;;;;;3.20;1.20;;;;;;;0.48;74.96;96852.63;4996299;28;20113;-76
2022/02/08 06:11:34;;;;;;;5.60;1.30;;;;;;;0.49;75.03;96857.66;4998809;28;20046;-77
2022/02/08 06:14:00;;;;;;;7.38;1.52;;;;;;;0.52;75.49;96867.66;4996618;28;20065;-76
2022/02/08 06:16:25;;;;;;;4.53;1.50;;;;;;;0.43;76.48;96858.34;4996380;28;20043;-77
2022/02/08 06:18:51;;;;;;;4.25;1.50;;;;;;;0.45;76.18;96861.56;4987261;28;20067;-77
2022/02/08 06:21:16;;;;;;;2.38;1.10;;;;;;;0.48;76.25;96856.03;5006948;28;20062;-77
2022/02/08 06:23:42;;;;;;;5.20;1.50;;;;;;;0.56;75.20;96851.75;4991290;28;20050;-77
2022/02/08 06:26:08;;;;;;;5.50;1.30;;;;;;;0.54;75.39;96853.72;4990804;28;20065;-77
2022/02/08 06:28:33;;;;;;;8.60;1.60;;;;;;;0.62;74.71;96856.28;4995897;28;20507;-76
2022/02/08 06:30:59;;;;;;;3.05;1.23;;;;;;;0.54;75.40;96858.91;4994639;28;20500;-76
2022/02/08 06:33:25;;;;;;;2.35;0.88;;;;;;;0.60;74.65;96868.56;5002568;28;20056;-77
2022/02/08 06:35:50;;;;;;;16.80;2.47;;;;;;;0.59;74.07;96861.78;4990366;28;20043;-77
2022/02/08 06:38:18;;;;;;;3.05;1.20;;;;;;;0.60;73.95;96868.56;4993372;28;20125;-77
2022/02/08 06:40:48;;;;;;;2.60;1.17;;;;;;;0.66;73.31;96868.72;4984193;28;20050;-78
2022/02/08 06:43:14;;;;;;;5.97;1.15;;;;;;;0.75;73.83;96877.22;4990282;28;20108;-77
2022/02/08 06:45:40;;;;;;;6.40;1.73;;;;;;;0.74;73.80;96870.41;4991808;28;20042;-78
2022/02/08 06:48:07;;;;;;;3.90;1.20;;;;;;;0.78;73.10;96876.88;4992703;28;20038;-77
2022/02/08 06:50:33;;;;;;;4.43;1.35;;;;;;;0.76;73.23;96868.47;5000151;28;20042;-77
2022/02/08 06:52:59;;;;;;;11.93;1.83;;;;;;;0.65;73.85;96876.66;4991693;28;20034;-77
2022/02/08 06:55:26;;;;;;;10.02;1.80;;;;;;;0.78;74.02;96868.31;4990541;28;20046;-77
2022/02/08 06:58:00;;;;;;;7.80;1.60;;;;;;;0.78;72.63;96876.88;4992535;28;20046;-77
2022/02/08 07:00:42;;;;;;;5.00;1.55;;;;;;;0.84;73.43;96881.34;4996508;28;20066;-77
2022/02/08 07:03:09;;;;;;;4.93;1.52;;;;;;;0.90;72.03;96879.06;4989785;28;20042;-77
2022/02/08 07:05:36;;;;;;;4.20;1.55;;;;;;;0.86;73.33;96889.78;4988136;28;20046;-77
2022/02/08 07:08:01;;;;;;;12.98;1.65;;;;;;;0.88;72.08;96891.38;4988343;28;20049;-77
2022/02/08 07:10:28;;;;;;;8.38;1.73;;;;;;;0.92;72.64;96892.63;4997920;28;20046;-77
2022/02/08 07:12:54;;;;;;;4.38;1.70;;;;;;;0.97;71.78;96890.34;4990215;28;20715;-77
2022/02/08 07:15:21;;;;;;;9.68;3.00;;;;;;;1.10;70.11;96900.91;4989792;28;20046;-77
2022/02/08 07:17:47;;;;;;;6.68;2.30;;;;;;;1.03;70.67;96890.47;4991191;28;20454;-77
2022/02/08 07:20:13;;;;;;;11.55;2.20;;;;;;;1.03;71.24;96894.81;4989764;28;20034;-77
2022/02/08 07:22:38;;;;;;;6.30;1.80;;;;;;;1.06;71.50;96899.66;4988446;28;20758;-77
2022/02/08 07:25:05;;;;;;;7.70;1.90;;;;;;;1.10;71.51;96900.91;4988417;28;20697;-76
2022/02/08 07:27:31;;;;;;;8.88;1.58;;;;;;;1.15;70.42;96906.41;4989983;28;20688;-75
2022/02/08 07:29:57;;;;;;;9.15;2.00;;;;;;;1.19;71.29;96910.25;5002275;28;20073;-74
2022/02/08 07:32:35;;;;;;;6.28;1.45;;;;;;;1.44;71.09;96902.25;4989218;28;20532;-77
2022/02/08 07:43:12;;;;;;;4.35;1.52;;;;;;;1.24;71.22;96901.16;4969862;28;20118;-74
2022/02/08 07:45:37;;;;;;;5.28;1.23;;;;;;;1.29;71.25;96906.59;5003527;28;20051;-74
2022/02/08 07:48:03;;;;;;;5.72;1.63;;;;;;;1.26;70.69;96909.56;5007157;28;20058;-73
2022/02/08 07:50:30;;;;;;;6.45;1.42;;;;;;;1.30;71.32;96910.81;4997729;28;20535;-74
2022/02/08 07:52:55;;;;;;;6.65;1.65;;;;;;;1.33;70.35;96900.09;4990565;28;20660;-75
2022/02/08 07:55:22;;;;;;;6.50;1.70;;;;;;;1.34;70.43;96912.06;4997147;28;20069;-74
2022/02/08 07:57:48;;;;;;;5.75;1.40;;;;;;;1.35;70.60;96904.13;5000595;28;20045;-73
2022/02/08 08:00:14;;;;;;;3.55;1.38;;;;;;;1.34;70.66;96906.91;4996924;28;20783;-74
2022/02/08 08:02:40;;;;;;;2.90;1.27;;;;;;;1.31;70.12;96902.06;4991330;28;20042;-75
2022/02/08 08:05:07;;;;;;;7.78;1.20;;;;;;;1.41;69.90;96907.78;4986591;28;20050;-72
2022/02/08 08:07:33;;;;;;;2.55;1.38;;;;;;;1.48;69.50;96911.28;5001664;28;20043;-79
2022/02/08 08:10:01;;;;;;;8.52;1.63;;;;;;;1.46;69.90;96909.84;4981741;28;20034;-75
2022/02/08 08:12:28;;;;;;;5.47;1.50;;;;;;;1.55;68.75;96909.59;4989394;28;20413;-76
2022/02/08 08:14:55;;;;;;;4.68;1.75;;;;;;;1.56;69.32;96906.00;4988613;28;20042;-76
2022/02/08 08:19:58;;;;;;;5.00;1.13;;;;;;;1.73;68.35;96901.47;4990449;28;20053;-76
2022/02/08 08:22:24;;;;;;;5.15;1.50;;;;;;;1.67;66.61;96902.19;4994224;28;20042;-75
2022/02/08 08:24:49;;;;;;;5.38;1.30;;;;;;;1.69;67.02;96894.22;4992593;28;20467;-76
2022/02/08 08:27:18;;;;;;;5.25;1.23;;;;;;;1.84;66.17;96895.03;4976286;28;20114;-76
2022/02/08 08:29:44;;;;;;;3.53;1.35;;;;;;;1.87;66.04;96902.44;4981247;28;20092;-75
2022/02/08 08:32:10;;;;;;;7.45;1.30;;;;;;;2.00;64.50;96890.63;4993041;28;20047;-76
2022/02/08 08:34:37;;;;;;;10.73;1.42;;;;;;;1.88;64.59;96898.88;4994150;28;20104;-76
2022/02/08 08:37:05;;;;;;;3.75;1.15;;;;;;;2.00;64.76;96890.63;4999105;28;20114;-76
2022/02/08 08:39:44;;;;;;;2.80;1.33;;;;;;;2.11;62.75;96903.13;4994577;28;20100;-76
2022/02/08 08:53:08;;;;;;;5.60;1.47;;;;;;;2.20;62.30;96906.47;4993848;28;20085;-76
2022/02/08 08:55:33;;;;;;;3.63;1.20;;;;;;;2.34;61.02;96915.19;4992147;28;20291;-76
2022/02/08 08:57:59;;;;;;;2.67;1.42;;;;;;;2.39;59.09;96902.47;4984112;28;20122;-75
2022/02/08 09:00:25;;;;;;;5.45;1.40;;;;;;;2.43;59.92;96895.94;4989480;28;20042;-75
2022/02/08 09:02:50;;;;;;;9.13;2.08;;;;;;;2.50;59.06;96896.81;4992887;28;20042;-75
2022/02/08 09:05:17;;;;;;;15.20;2.78;;;;;;;2.60;59.57;96902.50;4989282;28;20104;-74
2022/02/08 09:07:43;;;;;;;9.40;2.70;;;;;;;2.74;59.14;96897.44;4996296;28;20065;-75
2022/02/08 09:10:12;;;;;;;12.13;3.28;;;;;;;2.90;61.03;96902.41;4988256;28;20045;-76
2022/02/08 09:13:10;;;;;;;6.88;2.10;;;;;;;3.04;59.10;96892.13;4995362;28;20501;-76
2022/02/08 09:26:37;;;;;;;1.88;1.00;;;;;;;3.31;56.42;96881.94;4992008;28;20057;-75
2022/02/08 09:29:08;;;;;;;2.75;1.00;;;;;;;3.42;55.41;96873.56;5008445;28;20040;-79
2022/02/08 09:31:36;;;;;;;3.83;1.13;;;;;;;3.53;56.49;96869.66;4987545;28;20039;-74
2022/02/08 09:34:01;;;;;;;3.83;1.48;;;;;;;3.51;58.12;96885.47;4989046;28;20119;-74
2022/02/08 09:36:28;;;;;;;3.28;1.40;;;;;;;3.71;55.75;96887.41;4990055;28;20039;-74
2022/02/08 09:38:55;;;;;;;2.83;1.05;;;;;;;3.83;56.69;96885.84;4998102;28;20517;-72
2022/02/08 09:41:23;;;;;;;4.60;1.05;;;;;;;4.04;55.58;96897.16;4983973;28;20826;-72
2022/02/08 09:43:50;;;;;;;3.60;1.08;;;;;;;4.07;54.75;96891.59;4990847;28;20057;-72
2022/02/08 09:46:18;;;;;;;3.45;1.40;;;;;;;4.13;54.34;96890.81;4990751;28;20050;-71
2022/02/08 09:48:50;;;;;;;3.50;1.27;;;;;;;4.20;52.46;96885.63;4989891;28;20117;-74
2022/02/08 09:51:17;;;;;;;9.93;1.20;;;;;;;4.27;51.56;96882.03;4989877;28;20042;-75
2022/02/08 09:53:44;;;;;;;9.18;1.35;;;;;;;4.44;51.34;96886.91;4991323;28;20065;-75
2022/02/08 09:56:12;;;;;;;4.20;1.23;;;;;;;4.75;50.58;96882.97;4990782;28;20052;-75
2022/02/08 09:58:38;;;;;;;1.92;1.00;;;;;;;4.77;47.56;96888.78;4990012;28;20501;-74
2022/02/08 10:01:09;;;;;;;3.88;1.13;;;;;;;4.60;50.17;96886.56;4989731;28;20049;-73
2022/02/08 10:03:47;;;;;;;5.65;1.23;;;;;;;5.09;49.33;96886.44;4990668;28;20038;-73
2022/02/08 10:06:13;;;;;;;6.35;1.33;;;;;;;5.35;46.33;96889.03;4989175;28;20408;-74
2022/02/08 10:08:39;;;;;;;2.53;1.00;;;;;;;5.43;45.62;96884.59;4989952;28;20050;-73
2022/02/08 10:11:12;;;;;;;5.45;1.27;;;;;;;5.89;46.48;96888.97;4984362;28;20042;-73
2022/02/08 10:21:48;;;;;;;4.60;1.10;;;;;;;5.94;43.63;96881.28;4990219;28;20524;-75
2022/02/08 10:24:16;;;;;;;2.92;1.10;;;;;;;5.69;43.63;96889.78;4990975;28;20047;-74
2022/02/08 10:40:00;;;;;;;5.70;1.00;;;;;;;5.66;43.08;96866.69;4989098;28;20034;-74
2022/02/08 10:42:28;;;;;;;4.40;1.00;;;;;;;5.73;42.63;96870.09;4989342;28;20093;-74
2022/02/08 10:44:54;;;;;;;1.92;0.90;;;;;;;5.57;43.17;96865.28;4989315;28;20042;-74
2022/02/08 10:47:40;;;;;;;2.60;0.70;;;;;;;5.24;43.85;96863.53;4989949;28;20112;-74
2022/02/08 10:50:08;;;;;;;6.07;1.35;;;;;;;5.40;45.85;96856.28;4986852;28;20045;-74
2022/02/08 10:52:36;;;;;;;4.05;1.13;;;;;;;5.19;45.24;96855.50;4990577;28;20046;-74
2022/02/08 10:55:16;;;;;;;5.95;1.45;;;;;;;5.31;44.58;96861.72;4986057;28;20050;-74
2022/02/08 10:57:50;;;;;;;7.10;1.48;;;;;;;5.37;45.58;96855.69;4989246;28;20436;-74
2022/02/08 11:00:22;;;;;;;3.72;0.98;;;;;;;5.47;46.35;96849.25;4989216;28;20100;-74
2022/02/08 11:02:50;;;;;;;6.95;1.40;;;;;;;5.37;46.99;96845.25;4988885;28;20042;-74
2022/02/08 11:05:42;;;;;;;6.60;1.15;;;;;;;5.49;48.07;96842.03;4988086;28;20057;-73
2022/02/08 11:14:25;;;;;;;8.13;1.40;;;;;;;5.91;45.63;96824.22;4989631;28;20616;-74
2022/02/08 11:24:56;;;;;;;2.25;1.17;;;;;;;6.36;43.35;96805.94;4987738;28;20488;-74
2022/02/08 11:27:21;;;;;;;1.85;1.05;;;;;;;6.80;42.21;96806.06;4987777;28;20042;-74
2022/02/08 11:30:11;;;;;;;3.17;1.27;;;;;;;7.05;42.58;96803.44;4988874;28;20038;-74
2022/02/08 11:44:12;;;;;;;5.35;1.13;;;;;;;7.86;38.03;96781.66;4988592;28;20051;-74
2022/02/08 11:47:10;;;;;;;4.15;1.13;;;;;;;7.89;39.20;96782.03;4982511;28;20051;-74
2022/02/08 11:50:01;;;;;;;3.97;1.23;;;;;;;8.66;37.85;96780.59;4986691;28;20038;-74
2022/02/08 12:07:48;;;;;;;3.00;1.08;;;;;;;12.80;29.58;96779.94;4987763;28;20604;-74
2022/02/08 12:10:24;;;;;;;4.22;0.98;;;;;;;13.21;28.03;96780.22;4992084;28;20113;-75
2022/02/08 12:35:13;;;;;;;3.83;1.00;;;;;;;11.40;34.11;96764.44;4991727;28;20053;-76
2022/02/08 14:08:53;;;;;;;2.03;1.00;;;;;;;8.88;38.54;96707.38;4990624;28;20050;-75
2022/02/08 14:24:47;;;;;;;2.17;0.70;;;;;;;8.55;37.48;96721.03;4974594;28;20619;-75
2022/02/08 14:30:01;;;;;;;2.33;0.90;;;;;;;8.40;37.44;96718.81;4990835;28;20042;-75
2022/02/08 14:35:38;;;;;;;2.17;1.00;;;;;;;8.86;38.31;96711.25;4976519;28;20058;-75
2022/02/08 15:10:20;;;;;;;1.85;0.80;;;;;;;8.17;36.33;96703.81;4982643;28;20305;-73
2022/02/08 15:12:52;;;;;;;1.48;0.80;;;;;;;8.09;35.99;96703.13;5013924;28;20696;-73
2022/02/08 15:15:36;;;;;;;2.83;0.70;;;;;;;8.13;36.77;96699.03;4988357;28;20057;-73
2022/02/08 15:18:02;;;;;;;3.10;0.67;;;;;;;8.31;38.81;96705.22;4952658;28;1109632;-71
2022/02/08 15:20:28;;;;;;;2.35;0.80;;;;;;;8.38;37.59;96708.53;4989261;28;20046;-71
2022/02/08 15:22:58;;;;;;;0.65;0.65;;;;;;;8.23;37.32;96708.97;4988635;28;20049;-71
2022/02/08 15:25:26;;;;;;;1.30;0.95;;;;;;;8.10;37.87;96715.22;4990042;28;20046;-72
2022/02/08 15:27:52;;;;;;;2.53;0.93;;;;;;;8.13;40.12;96703.47;4992517;28;20034;-72
2022/02/08 15:30:18;;;;;;;2.78;1.45;;;;;;;7.93;38.63;96706.34;4997540;28;20431;-73
2022/02/08 15:32:44;;;;;;;1.10;0.75;;;;;;;7.84;38.21;96705.09;4985092;28;20051;-74
2022/02/08 15:35:10;;;;;;;2.60;0.82;;;;;;;7.81;39.02;96708.94;4982991;28;20046;-73
2022/02/08 15:37:35;;;;;;;5.40;1.20;;;;;;;7.83;39.54;96703.47;4995650;28;20101;-74
2022/02/08 15:40:05;;;;;;;4.50;1.10;;;;;;;7.60;39.63;96694.47;4988600;28;20069;-74
2022/02/08 15:42:32;;;;;;;2.85;1.20;;;;;;;7.67;39.72;96697.84;4989201;28;20049;-74
2022/02/08 15:45:04;;;;;;;15.30;1.60;;;;;;;7.62;41.14;96702.94;4984955;28;20046;-74
2022/02/08 15:47:30;;;;;;;1.20;0.80;;;;;;;7.55;40.72;96707.47;4984950;28;20066;-74
2022/02/08 15:50:00;;;;;;;1.67;1.08;;;;;;;7.62;40.41;96697.69;4979549;28;20453;-73
2022/02/08 15:53:02;;;;;;;1.88;1.00;;;;;;;7.57;40.39;96705.41;4976322;28;20052;-74
2022/02/08 15:58:24;;;;;;;2.78;1.00;;;;;;;7.32;41.77;96708.91;4997034;28;20034;-73
2022/02/08 16:08:56;;;;;;;3.63;1.20;;;;;;;7.24;43.82;96706.59;4983555;28;20129;-74
2022/02/08 16:14:10;;;;;;;2.47;1.23;;;;;;;7.17;44.09;96714.53;4988347;28;20049;-77
2022/02/08 16:57:34;;;;;;;1.58;1.10;;;;;;;6.62;43.60;96741.38;4990287;28;20049;-74
2022/02/08 17:00:03;;;;;;;1.85;1.02;;;;;;;6.44;44.56;96743.94;4992214;28;20042;-74
2022/02/08 17:02:31;;;;;;;2.35;1.00;;;;;;;6.43;45.79;96742.34;4991462;28;20472;-74
2022/02/08 17:05:00;;;;;;;4.53;1.40;;;;;;;6.38;45.61;96740.38;4989977;28;20149;-75
2022/02/08 17:07:26;;;;;;;2.00;1.40;;;;;;;6.19;46.08;96745.53;4990225;28;20073;-75
2022/02/08 17:10:02;;;;;;;2.67;1.20;;;;;;;6.17;46.62;96750.16;4994416;28;20115;-74
2022/02/08 17:12:37;;;;;;;3.42;1.60;;;;;;;6.22;44.88;96752.13;4989516;28;20039;-74
2022/02/08 17:47:43;;;;;;;10.30;2.08;;;;;;;5.04;51.71;96777.44;4987741;28;20513;-79
2022/02/08 17:50:10;;;;;;;5.43;2.10;;;;;;;4.93;52.55;96778.84;4992675;28;20061;-77
2022/02/08 17:52:37;;;;;;;5.80;2.25;;;;;;;4.63;52.65;96781.84;4990534;28;20053;-76
2022/02/08 17:55:07;;;;;;;7.88;2.53;;;;;;;4.21;54.06;96783.00;4996464;28;20050;-77
2022/02/08 17:57:33;;;;;;;7.70;2.92;;;;;;;4.18;55.09;96779.00;4983319;28;20401;-78
2022/02/08 17:59:59;;;;;;;10.80;3.78;;;;;;;3.86;56.13;96778.69;4990992;28;20047;-77
2022/02/08 18:02:25;;;;;;;10.88;3.47;;;;;;;3.92;56.15;96783.13;5006109;28;20639;-77
2022/02/08 18:04:53;;;;;;;8.80;2.70;;;;;;;3.91;54.24;96781.53;4990630;28;20046;-76
2022/02/08 18:07:21;;;;;;;10.40;2.90;;;;;;;3.67;57.85;96782.03;4990511;28;20510;-79
2022/02/08 18:09:48;;;;;;;7.32;3.15;;;;;;;3.86;56.74;96781.28;4999868;28;20042;-77
2022/02/08 18:12:14;;;;;;;9.90;3.30;;;;;;;3.82;57.72;96785.28;4990049;28;20706;-82
2022/02/08 18:14:43;;;;;;;10.57;3.30;;;;;;;3.92;56.58;96788.34;4992413;28;20050;-76
2022/02/08 18:17:13;;;;;;;17.40;4.78;;;;;;;3.96;54.78;96792.13;4990902;28;20133;-78
2022/02/08 18:19:47;;;;;;;64.38;14.25;;;;;;;3.81;56.10;96783.69;4986284;28;20523;-77
2022/02/08 18:54:41;;;;;;;30.42;11.23;;;;;;;3.17;60.07;96798.56;4988355;28;20515;-75
2022/02/08 19:11:25;;;;;;;22.73;7.70;;;;;;;1.87;65.17;96814.19;4987343;28;20117;-77
2022/02/08 19:24:07;;;;;;;10.27;3.78;;;;;;;1.32;67.28;96828.44;5003269;28;20231;-75
2022/02/08 19:26:33;;;;;;;8.18;3.42;;;;;;;1.31;67.97;96824.25;5011900;28;20050;-77
2022/02/08 19:28:59;;;;;;;10.50;3.30;;;;;;;1.19;67.96;96832.47;5007854;28;20655;-77
2022/02/08 19:31:25;;;;;;;7.43;3.33;;;;;;;1.05;69.74;96838.44;4999730;28;20101;-77
2022/02/08 19:33:52;;;;;;;5.88;2.75;;;;;;;1.02;69.73;96846.53;4992849;28;20043;-78
2022/02/08 19:36:18;;;;;;;7.60;2.80;;;;;;;1.07;68.90;96839.06;4994160;28;20141;-79
2022/02/08 19:38:48;;;;;;;7.47;3.13;;;;;;;0.95;69.45;96843.03;4991631;28;20524;-75
2022/02/08 19:41:20;;;;;;;10.23;2.83;;;;;;;1.01;69.59;96837.16;4988225;28;20401;-72
2022/02/08 19:43:48;;;;;;;9.25;2.58;;;;;;;1.04;69.38;96835.00;4989640;28;20100;-77
2022/02/08 19:46:14;;;;;;;5.68;2.00;;;;;;;0.77;71.70;96838.97;4993049;28;20038;-76
2022/02/08 19:48:40;;;;;;;7.40;2.05;;;;;;;0.62;72.50;96840.72;5007894;28;20042;-76
2022/02/08 19:51:06;;;;;;;4.80;2.30;;;;;;;0.58;71.98;96829.09;4990171;28;20655;-78
2022/02/08 19:53:34;;;;;;;5.80;2.20;;;;;;;0.61;72.06;96845.09;5001805;28;20050;-77
2022/02/08 19:56:11;;;;;;;6.63;2.58;;;;;;;0.58;71.89;96839.47;4983410;28;20057;-76
2022/02/08 19:58:37;;;;;;;7.78;2.03;;;;;;;0.38;73.95;96844.28;4990951;28;20507;-77
2022/02/08 20:01:14;;;;;;;7.80;2.05;;;;;;;0.20;74.32;96842.75;4990241;28;20038;-77
2022/02/08 20:03:52;;;;;;;7.00;2.55;;;;;;;0.23;74.60;96857.16;4990400;28;20124;-77
2022/02/08 20:06:18;;;;;;;9.70;2.28;;;;;;;0.30;72.97;96847.72;4989737;28;20520;-76
2022/02/08 20:08:44;;;;;;;6.18;2.50;;;;;;;0.21;73.95;96848.75;4988918;28;20150;-76